sensor_id;sensor_type;location;lat;lon;timestamp;P1;durP1;ratioP1;P2;durP2;ratioP2
7199;SDS011;3641;49.082;8.200;2022-11-20T00:00:18;16.88;;;10.38;;
7199;SDS011;3641;49.082;8.200;2022-11-20T00:02:44;17.48;;;10.43;;
7199;SDS011;3641;49.082;8.200;2022-11-20T00:05:11;17.45;;;10.25;;
7199;SDS011;3641;49.082;8.200;2022-11-20T00:07:37;18.10;;;10.60;;
7199;SDS011;3641;49.082;8.200;2022-11-20T00:10:04;16.63;;;10.00;;
7199;SDS011;3641;49.082;8.200;2022-11-20T00:12:33;18.58;;;10.80;;
7199;SDS011;3641;49.082;8.200;2022-11-20T00:14:59;17.65;;;10.40;;
7199;SDS011;3641;49.082;8.200;2022-11-20T00:17:26;19.23;;;10.50;;
7199;SDS011;3641;49.082;8.200;2022-11-20T00:19:52;19.42;;;10.90;;
7199;SDS011;3641;49.082;8.200;2022-11-20T00:22:21;16.38;;;9.70;;
7199;SDS011;3641;49.082;8.200;2022-11-20T00:24:48;17.63;;;10.05;;
7199;SDS011;3641;49.082;8.200;2022-11-20T00:27:14;18.20;;;10.50;;
7199;SDS011;3641;49.082;8.200;2022-11-20T00:29:42;19.95;;;10.88;;
7199;SDS011;3641;49.082;8.200;2022-11-20T00:32:08;17.67;;;10.95;;
7199;SDS011;3641;49.082;8.200;2022-11-20T00:34:35;19.90;;;10.93;;
7199;SDS011;3641;49.082;8.200;2022-11-20T00:37:02;19.85;;;11.52;;
7199;SDS011;3641;49.082;8.200;2022-11-20T00:39:28;18.13;;;10.10;;
7199;SDS011;3641;49.082;8.200;2022-11-20T00:41:55;17.20;;;10.90;;
7199;SDS011;3641;49.082;8.200;2022-11-20T00:44:21;18.30;;;11.10;;
7199;SDS011;3641;49.082;8.200;2022-11-20T00:46:49;21.95;;;10.95;;
7199;SDS011;3641;49.082;8.200;2022-11-20T00:49:15;16.15;;;9.88;;
7199;SDS011;3641;49.082;8.200;2022-11-20T00:51:42;19.25;;;10.60;;
7199;SDS011;3641;49.082;8.200;2022-11-20T00:54:08;17.35;;;9.45;;
7199;SDS011;3641;49.082;8.200;2022-11-20T00:56:35;19.77;;;11.18;;
7199;SDS011;3641;49.082;8.200;2022-11-20T00:59:02;21.42;;;11.65;;
7199;SDS011;3641;49.082;8.200;2022-11-20T01:01:28;24.00;;;13.50;;
7199;SDS011;3641;49.082;8.200;2022-11-20T01:03:57;26.95;;;14.93;;
7199;SDS011;3641;49.082;8.200;2022-11-20T01:06:26;25.75;;;13.93;;
7199;SDS011;3641;49.082;8.200;2022-11-20T01:08:54;24.67;;;13.82;;
7199;SDS011;3641;49.082;8.200;2022-11-20T01:11:22;23.35;;;12.90;;
7199;SDS011;3641;49.082;8.200;2022-11-20T01:13:50;22.40;;;12.80;;
7199;SDS011;3641;49.082;8.200;2022-11-20T01:16:18;22.23;;;12.90;;
7199;SDS011;3641;49.082;8.200;2022-11-20T01:18:46;20.75;;;11.45;;
7199;SDS011;3641;49.082;8.200;2022-11-20T01:21:16;20.75;;;12.02;;
7199;SDS011;3641;49.082;8.200;2022-11-20T01:23:44;22.38;;;12.55;;
7199;SDS011;3641;49.082;8.200;2022-11-20T01:26:12;21.52;;;12.05;;
7199;SDS011;3641;49.082;8.200;2022-11-20T01:28:41;21.17;;;12.27;;
7199;SDS011;3641;49.082;8.200;2022-11-20T01:31:11;20.38;;;11.68;;
7199;SDS011;3641;49.082;8.200;2022-11-20T01:33:39;24.95;;;11.88;;
7199;SDS011;3641;49.082;8.200;2022-11-20T01:36:06;22.42;;;12.40;;
7199;SDS011;3641;49.082;8.200;2022-11-20T01:38:35;23.83;;;12.30;;
7199;SDS011;3641;49.082;8.200;2022-11-20T01:41:02;21.45;;;12.98;;
7199;SDS011;3641;49.082;8.200;2022-11-20T01:43:29;24.45;;;13.93;;
7199;SDS011;3641;49.082;8.200;2022-11-20T01:46:03;24.80;;;14.00;;
7199;SDS011;3641;49.082;8.200;2022-11-20T01:48:33;29.08;;;14.70;;
7199;SDS011;3641;49.082;8.200;2022-11-20T01:51:02;26.90;;;14.57;;
7199;SDS011;3641;49.082;8.200;2022-11-20T01:53:33;26.00;;;14.13;;
7199;SDS011;3641;49.082;8.200;2022-11-20T01:56:04;26.10;;;14.73;;
7199;SDS011;3641;49.082;8.200;2022-11-20T01:58:33;25.10;;;14.57;;
7199;SDS011;3641;49.082;8.200;2022-11-20T02:01:03;30.35;;;14.40;;
7199;SDS011;3641;49.082;8.200;2022-11-20T02:03:30;28.75;;;15.80;;
7199;SDS011;3641;49.082;8.200;2022-11-20T02:05:59;28.50;;;14.50;;
7199;SDS011;3641;49.082;8.200;2022-11-20T02:08:30;26.92;;;15.40;;
7199;SDS011;3641;49.082;8.200;2022-11-20T02:10:58;32.33;;;16.02;;
7199;SDS011;3641;49.082;8.200;2022-11-20T02:13:25;31.80;;;15.30;;
7199;SDS011;3641;49.082;8.200;2022-11-20T02:16:10;33.63;;;16.25;;
7199;SDS011;3641;49.082;8.200;2022-11-20T02:18:38;26.25;;;14.95;;
7199;SDS011;3641;49.082;8.200;2022-11-20T02:21:07;28.33;;;15.93;;
7199;SDS011;3641;49.082;8.200;2022-11-20T02:23:39;29.60;;;15.90;;
7199;SDS011;3641;49.082;8.200;2022-11-20T02:26:12;28.83;;;15.07;;
7199;SDS011;3641;49.082;8.200;2022-11-20T02:28:41;25.20;;;13.65;;
7199;SDS011;3641;49.082;8.200;2022-11-20T02:31:08;26.20;;;14.50;;
7199;SDS011;3641;49.082;8.200;2022-11-20T02:33:35;25.52;;;13.65;;
7199;SDS011;3641;49.082;8.200;2022-11-20T02:36:01;24.02;;;13.02;;
7199;SDS011;3641;49.082;8.200;2022-11-20T02:38:28;28.90;;;13.82;;
7199;SDS011;3641;49.082;8.200;2022-11-20T02:40:55;23.77;;;13.63;;
7199;SDS011;3641;49.082;8.200;2022-11-20T02:43:23;24.85;;;12.63;;
7199;SDS011;3641;49.082;8.200;2022-11-20T02:45:49;25.92;;;13.23;;
7199;SDS011;3641;49.082;8.200;2022-11-20T02:48:16;20.73;;;11.73;;
7199;SDS011;3641;49.082;8.200;2022-11-20T02:50:42;21.92;;;12.02;;
7199;SDS011;3641;49.082;8.200;2022-11-20T02:53:09;23.38;;;11.90;;
7199;SDS011;3641;49.082;8.200;2022-11-20T02:55:35;21.17;;;11.38;;
7199;SDS011;3641;49.082;8.200;2022-11-20T02:58:02;21.27;;;11.40;;
7199;SDS011;3641;49.082;8.200;2022-11-20T03:00:30;20.02;;;11.02;;
7199;SDS011;3641;49.082;8.200;2022-11-20T03:02:57;21.58;;;10.82;;
7199;SDS011;3641;49.082;8.200;2022-11-20T03:05:23;19.95;;;10.52;;
7199;SDS011;3641;49.082;8.200;2022-11-20T03:07:50;19.30;;;11.07;;
7199;SDS011;3641;49.082;8.200;2022-11-20T03:10:16;17.98;;;10.60;;
7199;SDS011;3641;49.082;8.200;2022-11-20T03:12:43;20.73;;;10.52;;
7199;SDS011;3641;49.082;8.200;2022-11-20T03:15:10;19.83;;;10.38;;
7199;SDS011;3641;49.082;8.200;2022-11-20T03:17:38;18.80;;;9.73;;
7199;SDS011;3641;49.082;8.200;2022-11-20T03:20:05;18.70;;;10.30;;
7199;SDS011;3641;49.082;8.200;2022-11-20T03:22:34;19.30;;;9.35;;
7199;SDS011;3641;49.082;8.200;2022-11-20T03:25:00;17.38;;;9.65;;
7199;SDS011;3641;49.082;8.200;2022-11-20T03:27:27;16.58;;;9.23;;
7199;SDS011;3641;49.082;8.200;2022-11-20T03:29:57;16.73;;;9.10;;
7199;SDS011;3641;49.082;8.200;2022-11-20T03:32:23;21.05;;;9.20;;
7199;SDS011;3641;49.082;8.200;2022-11-20T03:34:51;14.27;;;8.88;;
7199;SDS011;3641;49.082;8.200;2022-11-20T03:37:18;17.13;;;9.55;;
7199;SDS011;3641;49.082;8.200;2022-11-20T03:39:44;14.55;;;8.48;;
7199;SDS011;3641;49.082;8.200;2022-11-20T03:42:11;16.85;;;8.82;;
7199;SDS011;3641;49.082;8.200;2022-11-20T03:44:51;15.23;;;8.23;;
7199;SDS011;3641;49.082;8.200;2022-11-20T03:47:18;14.73;;;8.30;;
7199;SDS011;3641;49.082;8.200;2022-11-20T03:49:44;14.05;;;8.07;;
7199;SDS011;3641;49.082;8.200;2022-11-20T03:52:12;17.65;;;8.35;;
7199;SDS011;3641;49.082;8.200;2022-11-20T03:54:39;14.38;;;7.95;;
7199;SDS011;3641;49.082;8.200;2022-11-20T03:57:05;13.73;;;7.90;;
7199;SDS011;3641;49.082;8.200;2022-11-20T03:59:32;15.55;;;7.60;;
7199;SDS011;3641;49.082;8.200;2022-11-20T04:01:58;14.20;;;7.78;;
7199;SDS011;3641;49.082;8.200;2022-11-20T04:04:25;16.48;;;8.40;;
7199;SDS011;3641;49.082;8.200;2022-11-20T04:06:51;12.32;;;7.45;;
7199;SDS011;3641;49.082;8.200;2022-11-20T04:09:19;13.70;;;7.63;;
7199;SDS011;3641;49.082;8.200;2022-11-20T04:11:46;12.10;;;7.97;;
7199;SDS011;3641;49.082;8.200;2022-11-20T04:14:13;12.65;;;7.63;;
7199;SDS011;3641;49.082;8.200;2022-11-20T04:16:41;13.18;;;7.07;;
7199;SDS011;3641;49.082;8.200;2022-11-20T04:19:09;13.05;;;7.85;;
7199;SDS011;3641;49.082;8.200;2022-11-20T04:21:37;12.55;;;6.78;;
7199;SDS011;3641;49.082;8.200;2022-11-20T04:24:04;10.75;;;7.10;;
7199;SDS011;3641;49.082;8.200;2022-11-20T04:26:32;12.82;;;7.30;;
7199;SDS011;3641;49.082;8.200;2022-11-20T04:28:59;14.02;;;7.25;;
7199;SDS011;3641;49.082;8.200;2022-11-20T04:31:27;12.55;;;6.70;;
7199;SDS011;3641;49.082;8.200;2022-11-20T04:33:55;11.25;;;6.60;;
7199;SDS011;3641;49.082;8.200;2022-11-20T04:36:26;11.75;;;6.60;;
7199;SDS011;3641;49.082;8.200;2022-11-20T04:38:53;12.02;;;6.60;;
7199;SDS011;3641;49.082;8.200;2022-11-20T04:41:21;10.25;;;6.70;;
7199;SDS011;3641;49.082;8.200;2022-11-20T04:43:51;13.10;;;6.30;;
7199;SDS011;3641;49.082;8.200;2022-11-20T04:46:24;12.40;;;6.10;;
7199;SDS011;3641;49.082;8.200;2022-11-20T04:48:51;10.60;;;6.03;;
7199;SDS011;3641;49.082;8.200;2022-11-20T04:51:18;12.68;;;6.55;;
7199;SDS011;3641;49.082;8.200;2022-11-20T04:53:44;13.38;;;6.35;;
7199;SDS011;3641;49.082;8.200;2022-11-20T04:56:12;12.13;;;6.07;;
7199;SDS011;3641;49.082;8.200;2022-11-20T04:58:39;10.68;;;5.47;;
7199;SDS011;3641;49.082;8.200;2022-11-20T05:01:09;9.55;;;5.80;;
7199;SDS011;3641;49.082;8.200;2022-11-20T05:03:36;10.65;;;6.30;;
7199;SDS011;3641;49.082;8.200;2022-11-20T05:06:04;10.35;;;6.47;;
7199;SDS011;3641;49.082;8.200;2022-11-20T05:08:32;11.98;;;5.13;;
7199;SDS011;3641;49.082;8.200;2022-11-20T05:10:59;13.18;;;5.93;;
7199;SDS011;3641;49.082;8.200;2022-11-20T05:13:27;10.90;;;5.80;;
7199;SDS011;3641;49.082;8.200;2022-11-20T05:15:54;9.07;;;5.63;;
7199;SDS011;3641;49.082;8.200;2022-11-20T05:18:21;8.55;;;5.80;;
7199;SDS011;3641;49.082;8.200;2022-11-20T05:20:54;8.68;;;5.45;;
7199;SDS011;3641;49.082;8.200;2022-11-20T05:23:21;9.38;;;5.40;;
7199;SDS011;3641;49.082;8.200;2022-11-20T05:25:47;8.52;;;4.78;;
7199;SDS011;3641;49.082;8.200;2022-11-20T05:28:14;9.57;;;5.28;;
7199;SDS011;3641;49.082;8.200;2022-11-20T05:30:40;8.65;;;4.95;;
7199;SDS011;3641;49.082;8.200;2022-11-20T05:33:07;9.82;;;5.07;;
7199;SDS011;3641;49.082;8.200;2022-11-20T05:35:35;9.88;;;5.60;;
7199;SDS011;3641;49.082;8.200;2022-11-20T05:38:02;9.00;;;4.80;;
7199;SDS011;3641;49.082;8.200;2022-11-20T05:40:28;7.82;;;4.20;;
7199;SDS011;3641;49.082;8.200;2022-11-20T05:42:55;8.73;;;4.80;;
7199;SDS011;3641;49.082;8.200;2022-11-20T05:45:21;9.40;;;4.70;;
7199;SDS011;3641;49.082;8.200;2022-11-20T05:47:48;9.52;;;4.43;;
7199;SDS011;3641;49.082;8.200;2022-11-20T05:50:14;9.20;;;4.97;;
7199;SDS011;3641;49.082;8.200;2022-11-20T05:52:43;8.05;;;4.63;;
7199;SDS011;3641;49.082;8.200;2022-11-20T05:55:09;11.05;;;4.78;;
7199;SDS011;3641;49.082;8.200;2022-11-20T05:57:36;9.15;;;4.43;;
7199;SDS011;3641;49.082;8.200;2022-11-20T06:00:03;7.32;;;4.03;;
7199;SDS011;3641;49.082;8.200;2022-11-20T06:02:30;9.38;;;4.80;;
7199;SDS011;3641;49.082;8.200;2022-11-20T06:04:56;9.57;;;5.38;;
7199;SDS011;3641;49.082;8.200;2022-11-20T06:07:23;7.75;;;4.43;;
7199;SDS011;3641;49.082;8.200;2022-11-20T06:09:51;9.15;;;4.53;;
7199;SDS011;3641;49.082;8.200;2022-11-20T06:12:17;8.10;;;4.95;;
7199;SDS011;3641;49.082;8.200;2022-11-20T06:14:43;8.63;;;5.22;;
7199;SDS011;3641;49.082;8.200;2022-11-20T06:17:10;9.27;;;4.50;;
7199;SDS011;3641;49.082;8.200;2022-11-20T06:19:37;6.97;;;4.40;;
7199;SDS011;3641;49.082;8.200;2022-11-20T06:22:03;9.75;;;4.38;;
7199;SDS011;3641;49.082;8.200;2022-11-20T06:24:30;8.10;;;4.93;;
7199;SDS011;3641;49.082;8.200;2022-11-20T06:26:57;9.23;;;4.60;;
7199;SDS011;3641;49.082;8.200;2022-11-20T06:29:24;7.80;;;4.20;;
7199;SDS011;3641;49.082;8.200;2022-11-20T06:31:50;8.38;;;4.80;;
7199;SDS011;3641;49.082;8.200;2022-11-20T06:34:17;8.95;;;4.82;;
7199;SDS011;3641;49.082;8.200;2022-11-20T06:36:44;6.70;;;4.30;;
7199;SDS011;3641;49.082;8.200;2022-11-20T06:39:10;9.10;;;4.47;;
7199;SDS011;3641;49.082;8.200;2022-11-20T06:41:37;9.45;;;4.53;;
7199;SDS011;3641;49.082;8.200;2022-11-20T06:44:05;8.95;;;4.53;;
7199;SDS011;3641;49.082;8.200;2022-11-20T06:46:31;10.15;;;4.72;;
7199;SDS011;3641;49.082;8.200;2022-11-20T06:48:58;8.63;;;4.75;;
7199;SDS011;3641;49.082;8.200;2022-11-20T06:51:24;11.10;;;4.65;;
7199;SDS011;3641;49.082;8.200;2022-11-20T06:53:51;8.32;;;4.90;;
7199;SDS011;3641;49.082;8.200;2022-11-20T06:56:17;7.88;;;4.45;;
7199;SDS011;3641;49.082;8.200;2022-11-20T06:58:44;9.80;;;4.70;;
7199;SDS011;3641;49.082;8.200;2022-11-20T07:01:12;8.23;;;4.82;;
7199;SDS011;3641;49.082;8.200;2022-11-20T07:03:40;11.80;;;4.95;;
7199;SDS011;3641;49.082;8.200;2022-11-20T07:06:08;8.75;;;4.53;;
7199;SDS011;3641;49.082;8.200;2022-11-20T07:08:35;8.35;;;4.43;;
7199;SDS011;3641;49.082;8.200;2022-11-20T07:11:03;9.48;;;4.78;;
7199;SDS011;3641;49.082;8.200;2022-11-20T07:13:31;11.15;;;4.32;;
7199;SDS011;3641;49.082;8.200;2022-11-20T07:15:58;8.98;;;5.05;;
7199;SDS011;3641;49.082;8.200;2022-11-20T07:18:29;9.30;;;4.88;;
7199;SDS011;3641;49.082;8.200;2022-11-20T07:20:59;8.30;;;4.35;;
7199;SDS011;3641;49.082;8.200;2022-11-20T07:23:26;10.52;;;4.90;;
7199;SDS011;3641;49.082;8.200;2022-11-20T07:25:52;7.70;;;4.70;;
7199;SDS011;3641;49.082;8.200;2022-11-20T07:28:19;7.40;;;4.70;;
7199;SDS011;3641;49.082;8.200;2022-11-20T07:30:49;8.75;;;5.07;;
7199;SDS011;3641;49.082;8.200;2022-11-20T07:33:16;8.77;;;5.15;;
7199;SDS011;3641;49.082;8.200;2022-11-20T07:35:44;8.55;;;5.00;;
7199;SDS011;3641;49.082;8.200;2022-11-20T07:38:10;7.43;;;4.65;;
7199;SDS011;3641;49.082;8.200;2022-11-20T07:40:37;10.23;;;5.20;;
7199;SDS011;3641;49.082;8.200;2022-11-20T07:43:04;8.10;;;5.18;;
7199;SDS011;3641;49.082;8.200;2022-11-20T07:45:30;9.50;;;5.30;;
7199;SDS011;3641;49.082;8.200;2022-11-20T07:47:57;8.57;;;5.38;;
7199;SDS011;3641;49.082;8.200;2022-11-20T07:50:23;11.52;;;4.97;;
7199;SDS011;3641;49.082;8.200;2022-11-20T07:52:51;7.53;;;4.65;;
7199;SDS011;3641;49.082;8.200;2022-11-20T07:55:18;8.45;;;4.70;;
7199;SDS011;3641;49.082;8.200;2022-11-20T07:57:44;9.93;;;5.50;;
7199;SDS011;3641;49.082;8.200;2022-11-20T08:00:11;9.52;;;5.20;;
7199;SDS011;3641;49.082;8.200;2022-11-20T08:02:39;7.85;;;5.07;;
7199;SDS011;3641;49.082;8.200;2022-11-20T08:05:06;11.25;;;5.25;;
7199;SDS011;3641;49.082;8.200;2022-11-20T08:07:36;7.47;;;4.80;;
7199;SDS011;3641;49.082;8.200;2022-11-20T08:10:06;8.25;;;5.03;;
7199;SDS011;3641;49.082;8.200;2022-11-20T08:12:33;10.88;;;4.93;;
7199;SDS011;3641;49.082;8.200;2022-11-20T08:15:17;7.50;;;4.40;;
7199;SDS011;3641;49.082;8.200;2022-11-20T08:17:44;6.97;;;4.32;;
7199;SDS011;3641;49.082;8.200;2022-11-20T08:20:17;7.20;;;4.63;;
7199;SDS011;3641;49.082;8.200;2022-11-20T08:22:43;8.80;;;4.97;;
7199;SDS011;3641;49.082;8.200;2022-11-20T08:25:21;7.47;;;4.43;;
7199;SDS011;3641;49.082;8.200;2022-11-20T08:27:47;7.15;;;4.60;;
7199;SDS011;3641;49.082;8.200;2022-11-20T08:30:14;7.53;;;4.47;;
7199;SDS011;3641;49.082;8.200;2022-11-20T08:32:40;8.75;;;4.50;;
7199;SDS011;3641;49.082;8.200;2022-11-20T08:35:07;9.32;;;4.57;;
7199;SDS011;3641;49.082;8.200;2022-11-20T08:37:34;13.55;;;5.18;;
7199;SDS011;3641;49.082;8.200;2022-11-20T08:40:02;11.15;;;4.93;;
7199;SDS011;3641;49.082;8.200;2022-11-20T08:42:31;9.57;;;4.40;;
7199;SDS011;3641;49.082;8.200;2022-11-20T08:44:58;8.07;;;4.88;;
7199;SDS011;3641;49.082;8.200;2022-11-20T08:47:24;8.05;;;4.85;;
7199;SDS011;3641;49.082;8.200;2022-11-20T08:49:51;11.27;;;5.95;;
7199;SDS011;3641;49.082;8.200;2022-11-20T08:52:18;8.02;;;5.57;;
7199;SDS011;3641;49.082;8.200;2022-11-20T08:54:44;10.10;;;5.22;;
7199;SDS011;3641;49.082;8.200;2022-11-20T08:57:11;9.27;;;5.53;;
7199;SDS011;3641;49.082;8.200;2022-11-20T08:59:39;11.43;;;5.20;;
7199;SDS011;3641;49.082;8.200;2022-11-20T09:02:05;8.93;;;5.50;;
7199;SDS011;3641;49.082;8.200;2022-11-20T09:04:32;11.20;;;6.22;;
7199;SDS011;3641;49.082;8.200;2022-11-20T09:06:59;8.27;;;4.85;;
7199;SDS011;3641;49.082;8.200;2022-11-20T09:09:26;9.00;;;5.70;;
7199;SDS011;3641;49.082;8.200;2022-11-20T09:11:53;10.52;;;6.60;;
7199;SDS011;3641;49.082;8.200;2022-11-20T09:14:19;10.77;;;6.47;;
7199;SDS011;3641;49.082;8.200;2022-11-20T09:16:47;9.65;;;6.03;;
7199;SDS011;3641;49.082;8.200;2022-11-20T09:19:14;10.93;;;5.80;;
7199;SDS011;3641;49.082;8.200;2022-11-20T09:21:40;9.93;;;6.10;;
7199;SDS011;3641;49.082;8.200;2022-11-20T09:24:07;8.20;;;5.55;;
7199;SDS011;3641;49.082;8.200;2022-11-20T09:26:34;13.80;;;6.50;;
7199;SDS011;3641;49.082;8.200;2022-11-20T09:29:00;10.52;;;5.75;;
7199;SDS011;3641;49.082;8.200;2022-11-20T09:31:27;9.15;;;5.50;;
7199;SDS011;3641;49.082;8.200;2022-11-20T09:33:54;9.63;;;5.82;;
7199;SDS011;3641;49.082;8.200;2022-11-20T09:36:21;11.48;;;6.30;;
7199;SDS011;3641;49.082;8.200;2022-11-20T09:38:48;9.82;;;5.95;;
7199;SDS011;3641;49.082;8.200;2022-11-20T09:41:20;13.05;;;5.82;;
7199;SDS011;3641;49.082;8.200;2022-11-20T09:44:03;10.90;;;5.95;;
7199;SDS011;3641;49.082;8.200;2022-11-20T09:46:35;11.20;;;6.10;;
7199;SDS011;3641;49.082;8.200;2022-11-20T09:49:14;10.68;;;6.18;;
7199;SDS011;3641;49.082;8.200;2022-11-20T09:51:53;12.32;;;6.28;;
7199;SDS011;3641;49.082;8.200;2022-11-20T09:54:26;10.35;;;5.75;;
7199;SDS011;3641;49.082;8.200;2022-11-20T09:56:56;10.57;;;5.90;;
7199;SDS011;3641;49.082;8.200;2022-11-20T09:59:33;9.10;;;5.80;;
7199;SDS011;3641;49.082;8.200;2022-11-20T10:02:08;9.65;;;5.20;;
7199;SDS011;3641;49.082;8.200;2022-11-20T10:04:44;7.35;;;4.18;;
7199;SDS011;3641;49.082;8.200;2022-11-20T10:07:16;6.28;;;3.40;;
7199;SDS011;3641;49.082;8.200;2022-11-20T10:09:49;7.00;;;3.58;;
7199;SDS011;3641;49.082;8.200;2022-11-20T10:12:19;7.90;;;3.83;;
7199;SDS011;3641;49.082;8.200;2022-11-20T10:14:56;5.00;;;3.58;;
7199;SDS011;3641;49.082;8.200;2022-11-20T10:17:46;10.07;;;4.18;;
7199;SDS011;3641;49.082;8.200;2022-11-20T10:20:27;6.25;;;4.28;;
7199;SDS011;3641;49.082;8.200;2022-11-20T10:23:04;8.25;;;4.90;;
7199;SDS011;3641;49.082;8.200;2022-11-20T10:25:47;8.73;;;4.50;;
7199;SDS011;3641;49.082;8.200;2022-11-20T10:28:29;10.90;;;4.90;;
7199;SDS011;3641;49.082;8.200;2022-11-20T10:31:13;9.00;;;4.72;;
7199;SDS011;3641;49.082;8.200;2022-11-20T10:33:57;8.57;;;4.68;;
7199;SDS011;3641;49.082;8.200;2022-11-20T10:36:33;9.88;;;4.72;;
7199;SDS011;3641;49.082;8.200;2022-11-20T10:39:04;8.02;;;5.03;;
7199;SDS011;3641;49.082;8.200;2022-11-20T10:41:38;10.40;;;4.55;;
7199;SDS011;3641;49.082;8.200;2022-11-20T10:44:09;8.60;;;3.95;;
7199;SDS011;3641;49.082;8.200;2022-11-20T10:47:00;9.45;;;4.32;;
7199;SDS011;3641;49.082;8.200;2022-11-20T10:49:27;10.27;;;3.78;;
7199;SDS011;3641;49.082;8.200;2022-11-20T10:51:58;6.95;;;3.50;;
7199;SDS011;3641;49.082;8.200;2022-11-20T10:54:31;6.90;;;3.25;;
7199;SDS011;3641;49.082;8.200;2022-11-20T10:57:06;9.57;;;3.60;;
7199;SDS011;3641;49.082;8.200;2022-11-20T10:59:51;6.57;;;3.03;;
7199;SDS011;3641;49.082;8.200;2022-11-20T11:02:31;10.38;;;3.17;;
7199;SDS011;3641;49.082;8.200;2022-11-20T11:04:59;9.77;;;3.28;;
7199;SDS011;3641;49.082;8.200;2022-11-20T11:07:38;6.10;;;2.70;;
7199;SDS011;3641;49.082;8.200;2022-11-20T11:10:13;7.03;;;2.80;;
7199;SDS011;3641;49.082;8.200;2022-11-20T11:12:45;8.52;;;3.40;;
7199;SDS011;3641;49.082;8.200;2022-11-20T11:15:14;10.63;;;3.60;;
7199;SDS011;3641;49.082;8.200;2022-11-20T11:17:51;8.35;;;2.97;;
7199;SDS011;3641;49.082;8.200;2022-11-20T11:20:18;7.53;;;2.80;;
7199;SDS011;3641;49.082;8.200;2022-11-20T11:22:48;10.80;;;3.00;;
7199;SDS011;3641;49.082;8.200;2022-11-20T11:25:23;10.55;;;3.28;;
7199;SDS011;3641;49.082;8.200;2022-11-20T11:27:53;8.15;;;2.63;;
7199;SDS011;3641;49.082;8.200;2022-11-20T11:30:21;6.85;;;2.67;;
7199;SDS011;3641;49.082;8.200;2022-11-20T11:32:50;11.07;;;2.70;;
7199;SDS011;3641;49.082;8.200;2022-11-20T11:35:20;7.65;;;2.95;;
7199;SDS011;3641;49.082;8.200;2022-11-20T11:37:50;8.98;;;2.25;;
7199;SDS011;3641;49.082;8.200;2022-11-20T11:40:19;10.40;;;2.30;;
7199;SDS011;3641;49.082;8.200;2022-11-20T11:42:50;10.60;;;2.03;;
7199;SDS011;3641;49.082;8.200;2022-11-20T11:45:20;10.98;;;2.50;;
7199;SDS011;3641;49.082;8.200;2022-11-20T11:47:47;4.03;;;1.90;;
7199;SDS011;3641;49.082;8.200;2022-11-20T11:50:17;7.43;;;2.08;;
7199;SDS011;3641;49.082;8.200;2022-11-20T11:52:48;6.00;;;2.13;;
7199;SDS011;3641;49.082;8.200;2022-11-20T11:55:33;5.78;;;2.20;;
7199;SDS011;3641;49.082;8.200;2022-11-20T11:58:16;5.13;;;1.98;;
7199;SDS011;3641;49.082;8.200;2022-11-20T12:00:53;4.32;;;1.60;;
7199;SDS011;3641;49.082;8.200;2022-11-20T12:03:27;4.43;;;1.88;;
7199;SDS011;3641;49.082;8.200;2022-11-20T12:05:56;5.43;;;1.98;;
7199;SDS011;3641;49.082;8.200;2022-11-20T12:08:28;6.45;;;2.20;;
7199;SDS011;3641;49.082;8.200;2022-11-20T12:11:00;5.97;;;2.00;;
7199;SDS011;3641;49.082;8.200;2022-11-20T12:13:36;3.72;;;1.55;;
7199;SDS011;3641;49.082;8.200;2022-11-20T12:16:11;4.05;;;1.90;;
7199;SDS011;3641;49.082;8.200;2022-11-20T12:18:40;6.53;;;1.83;;
7199;SDS011;3641;49.082;8.200;2022-11-20T12:21:17;6.18;;;1.70;;
7199;SDS011;3641;49.082;8.200;2022-11-20T12:23:51;3.90;;;1.77;;
7199;SDS011;3641;49.082;8.200;2022-11-20T12:26:34;4.68;;;1.85;;
7199;SDS011;3641;49.082;8.200;2022-11-20T12:29:15;4.28;;;2.13;;
7199;SDS011;3641;49.082;8.200;2022-11-20T12:31:52;4.72;;;1.92;;
7199;SDS011;3641;49.082;8.200;2022-11-20T12:34:37;4.82;;;2.13;;
7199;SDS011;3641;49.082;8.200;2022-11-20T12:37:15;6.43;;;2.00;;
7199;SDS011;3641;49.082;8.200;2022-11-20T12:39:51;4.88;;;2.00;;
7199;SDS011;3641;49.082;8.200;2022-11-20T12:42:39;8.23;;;2.00;;
7199;SDS011;3641;49.082;8.200;2022-11-20T12:45:36;7.13;;;2.45;;
7199;SDS011;3641;49.082;8.200;2022-11-20T12:48:20;5.93;;;2.10;;
7199;SDS011;3641;49.082;8.200;2022-11-20T12:51:06;3.58;;;1.55;;
7199;SDS011;3641;49.082;8.200;2022-11-20T12:53:49;3.10;;;1.40;;
7199;SDS011;3641;49.082;8.200;2022-11-20T12:56:30;3.85;;;1.45;;
7199;SDS011;3641;49.082;8.200;2022-11-20T12:59:08;5.10;;;1.35;;
7199;SDS011;3641;49.082;8.200;2022-11-20T13:01:50;4.40;;;1.40;;
7199;SDS011;3641;49.082;8.200;2022-11-20T13:04:26;6.47;;;1.50;;
7199;SDS011;3641;49.082;8.200;2022-11-20T13:07:12;3.95;;;1.42;;
7199;SDS011;3641;49.082;8.200;2022-11-20T13:09:40;3.20;;;1.30;;
7199;SDS011;3641;49.082;8.200;2022-11-20T13:12:12;4.15;;;1.20;;
7199;SDS011;3641;49.082;8.200;2022-11-20T13:14:42;4.28;;;1.50;;
7199;SDS011;3641;49.082;8.200;2022-11-20T13:17:16;5.32;;;1.40;;
7199;SDS011;3641;49.082;8.200;2022-11-20T13:19:48;5.05;;;1.33;;
7199;SDS011;3641;49.082;8.200;2022-11-20T13:22:23;7.13;;;1.48;;
7199;SDS011;3641;49.082;8.200;2022-11-20T13:24:51;7.22;;;1.83;;
7199;SDS011;3641;49.082;8.200;2022-11-20T13:27:19;5.32;;;1.25;;
7199;SDS011;3641;49.082;8.200;2022-11-20T13:29:58;2.95;;;1.38;;
7199;SDS011;3641;49.082;8.200;2022-11-20T13:32:27;6.25;;;1.48;;
7199;SDS011;3641;49.082;8.200;2022-11-20T13:34:58;3.45;;;1.38;;
7199;SDS011;3641;49.082;8.200;2022-11-20T13:37:30;6.40;;;1.48;;
7199;SDS011;3641;49.082;8.200;2022-11-20T13:42:54;4.65;;;1.17;;
7199;SDS011;3641;49.082;8.200;2022-11-20T13:45:24;4.15;;;1.10;;
7199;SDS011;3641;49.082;8.200;2022-11-20T13:47:52;4.63;;;1.10;;
7199;SDS011;3641;49.082;8.200;2022-11-20T13:50:21;5.80;;;1.40;;
7199;SDS011;3641;49.082;8.200;2022-11-20T13:53:06;4.68;;;1.30;;
7199;SDS011;3641;49.082;8.200;2022-11-20T13:55:46;3.25;;;1.10;;
7199;SDS011;3641;49.082;8.200;2022-11-20T13:58:26;2.75;;;1.10;;
7199;SDS011;3641;49.082;8.200;2022-11-20T14:01:08;6.57;;;1.20;;
7199;SDS011;3641;49.082;8.200;2022-11-20T14:03:40;5.28;;;1.30;;
7199;SDS011;3641;49.082;8.200;2022-11-20T14:06:11;6.25;;;1.33;;
7199;SDS011;3641;49.082;8.200;2022-11-20T14:08:41;4.22;;;1.38;;
7199;SDS011;3641;49.082;8.200;2022-11-20T14:11:13;6.65;;;1.60;;
7199;SDS011;3641;49.082;8.200;2022-11-20T14:13:52;2.85;;;1.40;;
7199;SDS011;3641;49.082;8.200;2022-11-20T14:16:21;7.35;;;2.20;;
7199;SDS011;3641;49.082;8.200;2022-11-20T14:18:48;6.15;;;1.20;;
7199;SDS011;3641;49.082;8.200;2022-11-20T14:21:21;4.95;;;1.50;;
7199;SDS011;3641;49.082;8.200;2022-11-20T14:23:48;6.28;;;1.25;;
7199;SDS011;3641;49.082;8.200;2022-11-20T14:26:17;5.20;;;1.50;;
7199;SDS011;3641;49.082;8.200;2022-11-20T14:28:47;2.50;;;1.08;;
7199;SDS011;3641;49.082;8.200;2022-11-20T14:31:18;3.88;;;1.17;;
7199;SDS011;3641;49.082;8.200;2022-11-20T14:33:49;4.13;;;1.23;;
7199;SDS011;3641;49.082;8.200;2022-11-20T14:36:17;2.65;;;1.17;;
7199;SDS011;3641;49.082;8.200;2022-11-20T14:38:46;5.82;;;1.30;;
7199;SDS011;3641;49.082;8.200;2022-11-20T14:41:16;5.95;;;1.65;;
7199;SDS011;3641;49.082;8.200;2022-11-20T14:43:45;5.90;;;1.17;;
7199;SDS011;3641;49.082;8.200;2022-11-20T14:46:13;4.72;;;1.60;;
7199;SDS011;3641;49.082;8.200;2022-11-20T14:48:43;5.82;;;1.60;;
7199;SDS011;3641;49.082;8.200;2022-11-20T14:51:11;3.85;;;1.20;;
7199;SDS011;3641;49.082;8.200;2022-11-20T14:53:49;4.15;;;1.38;;
7199;SDS011;3641;49.082;8.200;2022-11-20T14:56:20;5.15;;;1.20;;
7199;SDS011;3641;49.082;8.200;2022-11-20T14:58:54;7.00;;;1.33;;
7199;SDS011;3641;49.082;8.200;2022-11-20T15:01:25;4.65;;;1.65;;
7199;SDS011;3641;49.082;8.200;2022-11-20T15:03:59;4.03;;;1.42;;
7199;SDS011;3641;49.082;8.200;2022-11-20T15:06:26;2.72;;;1.38;;
7199;SDS011;3641;49.082;8.200;2022-11-20T15:08:54;4.43;;;1.90;;
7199;SDS011;3641;49.082;8.200;2022-11-20T15:11:23;4.05;;;1.85;;
7199;SDS011;3641;49.082;8.200;2022-11-20T15:13:54;5.82;;;2.25;;
7199;SDS011;3641;49.082;8.200;2022-11-20T15:16:21;5.50;;;1.85;;
7199;SDS011;3641;49.082;8.200;2022-11-20T15:18:49;4.22;;;1.63;;
7199;SDS011;3641;49.082;8.200;2022-11-20T15:21:19;6.88;;;2.00;;
7199;SDS011;3641;49.082;8.200;2022-11-20T15:23:46;3.15;;;1.42;;